Euskara    
Meteorología y climatología de Navarra
Datos de la estación - Meteo Navarra

Estación de Aoiz GN

Altitud 534 m.


Datos desde el 23/02/2021 hasta el 24/02/2021 en horario solar
Los datos son PROVISIONALES

Anterior Página 1 de 1 Siguiente Descargar: Formato para Excel 2000 o superior   Formato csv   Formato para OpenOffice Calc
Fecha Temperatura Humedad relativa Radiación global Insolación Precipitación Vel. viento 10 m Vel. viento 10 m Dir. viento 10 m
°C % W/m² s l/m² m/s km/h °
23/02/2021 0:00 4.8 98 0.0 0 0.0 1.6 5.8 58
23/02/2021 0:10 5.0 98 0.0 0 0.0 2.1 7.4 65
23/02/2021 0:20 5.4 98 0.0 0 0.0 1.2 4.4 85
23/02/2021 0:30 5.1 96 0.0 0 0.0 0.4 1.6 102
23/02/2021 0:40 4.6 96 0.0 0 0.0 0.8 3.0 72
23/02/2021 0:50 4.4 97 0.0 0 0.0 1.2 4.4 45
23/02/2021 1:00 4.2 98 0.0 0 0.0 0.7 2.6 269
23/02/2021 1:10 4.2 98 0.0 0 0.0 0.6 2.2 80
23/02/2021 1:20 4.0 98 0.0 0 0.0 1.3 4.8 52
23/02/2021 1:30 3.9 98 0.0 0 0.0 1.1 3.9 48
23/02/2021 1:40 4.0 98 0.0 0 0.0 1.3 4.7 35
23/02/2021 1:50 4.6 98 0.0 0 0.0 1.6 5.7 29
23/02/2021 2:00 5.0 98 0.0 0 0.0 1.3 4.7 4
23/02/2021 2:10 4.7 97 0.0 0 0.0 0.5 1.9 222
23/02/2021 2:20 4.6 97 0.0 0 0.0 0.6 2.2 4
23/02/2021 2:30 4.6 98 0.0 0 0.0 0.9 3.1 23
23/02/2021 2:40 4.7 98 0.0 0 0.0 1.1 3.9 48
23/02/2021 2:50 5.4 99 0.0 0 0.0 2.2 8.0 18
23/02/2021 3:00 5.7 98 0.0 0 0.0 1.5 5.4 47
23/02/2021 3:10 5.4 98 0.0 0 0.0 1.1 4.0 43
23/02/2021 3:20 5.6 98 0.0 0 0.0 0.5 1.8 79
23/02/2021 3:30 5.6 98 0.0 0 0.0 0.1 0.5 106
23/02/2021 3:40 5.5 98 0.0 0 0.0 0.7 2.3 279
23/02/2021 3:50 5.4 98 0.0 0 0.0 0.8 3.0 274
23/02/2021 4:00 5.4 98 0.0 0 0.0 0.2 0.6 246
23/02/2021 4:10 5.7 98 0.0 0 0.0 1.3 4.7 84
23/02/2021 4:20 6.3 97 0.0 0 0.0 2.4 8.7 109
23/02/2021 4:30 6.6 96 0.0 0 0.0 2.5 9.0 106
23/02/2021 4:40 6.8 94 0.0 0 0.0 2.5 8.8 123
23/02/2021 4:50 6.9 94 0.0 0 0.0 1.6 5.8 135
23/02/2021 5:00 7.0 93 0.0 0 0.0 1.5 5.4 148
23/02/2021 5:10 7.0 93 0.0 0 0.0 1.9 6.9 148
23/02/2021 5:20 7.1 92 0.0 0 0.0 2.5 8.9 127
23/02/2021 5:30 7.1 93 0.0 0 0.0 3.2 11.5 108
23/02/2021 5:40 7.0 93 0.0 0 0.0 3.0 10.8 117
23/02/2021 5:50 7.0 93 0.0 0 0.0 2.6 9.5 125
23/02/2021 6:00 6.8 94 0.0 0 0.0 4.0 14.4 116
23/02/2021 6:10 6.8 94 0.0 0 0.0 3.0 10.8 122
23/02/2021 6:20 6.9 94 0.0 0 0.0 2.6 9.2 129
23/02/2021 6:30 6.9 93 0.0 0 0.0 2.8 10.0 130
23/02/2021 6:40 7.0 93 0.0 0 0.0 2.9 10.3 120
23/02/2021 6:50 6.9 93 0.0 0 0.0 2.7 9.8 119
23/02/2021 7:00 7.1 92 0.0 0 0.0 4.2 14.9 128
23/02/2021 7:10 7.1 91 1.6 0 0.0 3.6 12.9 146
23/02/2021 7:20 7.1 92 18.4 0 0.0 2.8 9.9 140
23/02/2021 7:30 7.1 92 26.0 0 0.0 2.6 9.5 125
23/02/2021 7:40 7.1 92 28.0 0 0.0 2.8 10.2 122
23/02/2021 7:50 7.2 92 28.7 0 0.0 3.5 12.7 122
23/02/2021 8:00 7.2 92 31.1 0 0.0 4.1 14.8 115
23/02/2021 8:10 7.3 91 21.9 0 0.0 2.9 10.5 123
23/02/2021 8:20 7.4 90 32.8 0 0.0 2.3 8.2 152
23/02/2021 8:30 7.4 91 52.8 0 0.0 2.5 8.8 137
23/02/2021 8:40 7.6 90 40.1 0 0.0 4.2 15.1 130
23/02/2021 8:50 7.7 89 60.1 0 0.0 3.5 12.5 140
23/02/2021 9:00 7.8 89 78.3 0 0.0 3.2 11.5 143
23/02/2021 9:10 7.9 88 114.0 0 0.0 2.8 10.0 143
23/02/2021 9:20 8.0 87 149.8 0 0.0 2.9 10.5 134
23/02/2021 9:30 8.3 87 184.6 122 0.0 2.7 9.8 145
23/02/2021 9:40 8.6 86 192.4 80 0.0 2.5 8.8 149
23/02/2021 9:50 8.7 87 130.4 0 0.0 3.1 11.3 139
23/02/2021 10:00 9.1 87 323.8 364 0.0 3.4 12.1 160
23/02/2021 10:10 9.6 84 413.1 536 0.0 4.3 15.5 181
23/02/2021 10:20 9.9 84 383.2 586 0.0 3.7 13.2 170
23/02/2021 10:30 10.1 82 505.8 590 0.0 4.6 16.7 183
23/02/2021 10:40 10.5 81 599.0 600 0.0 4.1 14.9 174
23/02/2021 10:50 10.7 80 457.5 412 0.0 3.9 14.0 168
23/02/2021 11:00 11.1 78 593.6 526 0.0 3.9 13.9 168
23/02/2021 11:10 11.4 76 669.0 600 0.0 3.3 11.8 170
23/02/2021 11:20 11.6 73 637.4 558 0.0 4.6 16.6 154
23/02/2021 11:30 11.6 74 471.8 450 0.0 4.3 15.3 136
23/02/2021 11:40 11.9 70 473.1 600 0.0 4.6 16.6 144
23/02/2021 11:50 12.0 69 580.7 600 0.0 4.8 17.4 151
23/02/2021 12:00 12.4 67 707.8 600 0.0 4.0 14.3 143
23/02/2021 12:10 12.8 67 671.1 552 0.0 4.3 15.5 151
23/02/2021 12:20 12.5 66 513.7 464 0.0 5.0 18.1 139
23/02/2021 12:30 12.9 65 520.0 480 0.0 4.4 15.9 157
23/02/2021 12:40 12.6 65 323.6 188 0.0 4.8 17.2 147
23/02/2021 12:50 12.5 66 307.0 104 0.0 5.3 19.1 139
23/02/2021 13:00 12.8 65 393.7 308 0.0 4.9 17.5 137
23/02/2021 13:10 13.1 62 505.0 478 0.0 5.8 21.0 137
23/02/2021 13:20 13.2 62 395.3 400 0.0 6.5 23.2 122
23/02/2021 13:30 13.2 61 495.1 328 0.0 5.6 20.2 143
23/02/2021 13:40 13.5 61 696.5 600 0.0 5.4 19.4 135
23/02/2021 13:50 14.1 60 707.2 600 0.0 5.4 19.4 123
23/02/2021 14:00 13.9 60 491.5 524 0.0 4.7 16.8 129
23/02/2021 14:10 13.8 61 546.9 542 0.0 5.1 18.3 121
23/02/2021 14:20 14.2 59 674.5 600 0.0 5.8 21.0 128
23/02/2021 14:30 14.3 59 627.3 600 0.0 5.0 18.0 128
23/02/2021 14:40 14.6 59 632.0 600 0.0 5.6 20.1 126
23/02/2021 14:50 14.3 58 434.7 496 0.0 5.9 21.3 129
23/02/2021 15:00 13.7 59 278.5 268 0.0 6.7 24.1 132
23/02/2021 15:10 13.7 59 258.1 236 0.0 5.1 18.4 133
23/02/2021 15:20 13.6 60 223.9 222 0.0 3.8 13.6 145
23/02/2021 15:30 13.8 59 237.3 260 0.0 5.3 19.2 138
23/02/2021 15:40 13.7 57 173.0 154 0.0 5.4 19.4 137
23/02/2021 15:50 14.0 57 326.2 594 0.0 4.9 17.5 145
23/02/2021 16:00 14.3 57 298.1 600 0.0 4.3 15.3 130
23/02/2021 16:10 14.2 56 250.8 538 0.0 4.6 16.4 143
23/02/2021 16:20 14.2 57 217.2 526 0.0 3.3 12.0 147
23/02/2021 16:30 14.1 58 180.1 574 0.0 3.8 13.6 133
23/02/2021 16:40 13.9 57 147.9 600 0.0 3.8 13.6 137
23/02/2021 16:50 13.8 58 120.9 600 0.0 3.5 12.5 138
23/02/2021 17:00 13.7 59 99.2 600 0.0 3.3 11.7 150
23/02/2021 17:10 13.6 60 77.3 578 0.0 2.3 8.3 167
23/02/2021 17:20 13.3 62 57.2 600 0.0 2.0 7.1 170
23/02/2021 17:30 13.1 63 33.5 420 0.0 2.5 9.0 174
23/02/2021 17:40 12.8 65 14.1 0 0.0 2.3 8.2 184
23/02/2021 17:50 12.4 67 0.0 0 0.0 1.5 5.4 158
23/02/2021 18:00 12.3 68 0.0 0 0.0 2.2 7.7 201
23/02/2021 18:10 12.1 69 0.0 0 0.0 2.0 7.3 183
23/02/2021 18:20 11.8 71 0.0 0 0.0 1.2 4.1 191
23/02/2021 18:30 11.7 72 0.0 0 0.0 2.2 7.8 146
23/02/2021 18:40 11.7 73 0.0 0 0.0 2.9 10.5 142
23/02/2021 18:50 11.6 73 0.0 0 0.0 3.1 11.2 132
23/02/2021 19:00 11.3 75 0.0 0 0.0 2.7 9.5 120
23/02/2021 19:10 11.1 76 0.0 0 0.0 3.7 13.3 119
23/02/2021 19:20 11.1 76 0.0 0 0.0 3.5 12.4 116
23/02/2021 19:30 11.0 77 0.0 0 0.0 3.3 12.0 125
23/02/2021 19:40 11.1 76 0.0 0 0.0 3.0 10.8 131
23/02/2021 19:50 11.1 77 0.0 0 0.0 3.4 12.3 123
23/02/2021 20:00 11.0 77 0.0 0 0.0 3.8 13.6 118
23/02/2021 20:10 11.1 77 0.0 0 0.0 4.9 17.5 112
23/02/2021 20:20 11.1 77 0.0 0 0.0 5.1 18.4 114
23/02/2021 20:30 11.0 78 0.0 0 0.0 5.3 19.2 116
23/02/2021 20:40 11.2 78 0.0 0 0.0 4.6 16.5 130
23/02/2021 20:50 11.3 77 0.0 0 0.0 5.3 19.0 140
23/02/2021 21:00 11.4 77 0.0 0 0.0 3.7 13.2 160
23/02/2021 21:10 11.3 77 0.0 0 0.0 2.6 9.2 168
23/02/2021 21:20 11.2 78 0.0 0 0.0 1.7 6.2 163
23/02/2021 21:30 10.8 79 0.0 0 0.0 1.4 5.2 154
23/02/2021 21:40 10.5 80 0.0 0 0.0 1.2 4.4 169
23/02/2021 21:50 10.3 81 0.0 0 0.0 1.1 4.1 154
23/02/2021 22:00 10.4 80 0.0 0 0.0 1.5 5.3 147
23/02/2021 22:10 10.3 80 0.0 0 0.0 1.2 4.5 159
23/02/2021 22:20 10.1 80 0.0 0 0.0 1.6 5.8 134
23/02/2021 22:30 10.4 79 0.0 0 0.0 2.6 9.4 147
23/02/2021 22:40 10.5 78 0.0 0 0.0 2.4 8.6 131
23/02/2021 22:50 10.4 79 0.0 0 0.0 1.8 6.5 146
23/02/2021 23:00 10.5 78 0.0 0 0.0 1.9 6.8 152
23/02/2021 23:10 10.5 78 0.0 0 0.0 2.1 7.6 135
23/02/2021 23:20 10.5 79 0.0 0 0.0 2.8 10.2 124
23/02/2021 23:30 10.5 79 0.0 0 0.0 2.5 9.0 130
23/02/2021 23:40 10.6 79 0.0 0 0.0 2.5 9.1 123
23/02/2021 23:50 10.5 79 0.0 0 0.0 2.9 10.3 124
Anterior Página 1 de 1 Siguiente

NOTA: Tipo de datos según el color:
   - Valores diarios o 10 minutos correctos
   - Valores diarios calculados a partir de un número de datos 10 minutos menor que 144 y mayor que 120, o de un número de datos semihorarios menor que 48 y mayor que 40 (caso de las estaciones de INTIA Y Ministerio)
   - Valores diez minutos estimados


Contacto        Enlaces        Aviso legal